createdAt,value
2019-05-07T00:00:32.899Z,1.12
2019-05-07T00:03:03.242Z,0.90
2019-05-07T00:05:33.132Z,1.32
2019-05-07T00:08:03.052Z,1.20
2019-05-07T00:10:33.136Z,1.27
2019-05-07T00:13:02.339Z,1.10
2019-05-07T00:15:32.831Z,1.20
2019-05-07T00:18:02.966Z,1.30
2019-05-07T00:20:32.695Z,1.30
2019-05-07T00:23:02.900Z,1.17
2019-05-07T00:25:32.747Z,1.07
2019-05-07T00:28:02.832Z,1.50
2019-05-07T00:30:33.251Z,1.50
2019-05-07T00:33:02.783Z,1.50
2019-05-07T00:35:38.889Z,1.42
2019-05-07T00:38:08.927Z,1.30
2019-05-07T00:40:48.092Z,1.60
2019-05-07T00:43:18.094Z,1.60
2019-05-07T00:45:57.295Z,1.62
2019-05-07T00:48:25.817Z,1.50
2019-05-07T00:50:55.801Z,1.45
2019-05-07T00:53:24.237Z,1.52
2019-05-07T00:55:52.743Z,1.22
2019-05-07T00:58:26.338Z,1.30
2019-05-07T01:00:53.106Z,1.50
2019-05-07T01:03:22.228Z,1.50
2019-05-07T01:05:52.773Z,1.50
2019-05-07T01:08:22.498Z,1.80
2019-05-07T01:10:52.892Z,1.40
2019-05-07T01:13:23.142Z,1.80
2019-05-07T01:15:53.221Z,1.42
2019-05-07T01:18:23.312Z,1.62
2019-05-07T01:20:53.300Z,1.50
2019-05-07T01:23:22.899Z,1.50
2019-05-07T01:25:52.560Z,1.60
2019-05-07T01:28:22.301Z,1.50
2019-05-07T01:30:52.870Z,1.82
2019-05-07T01:33:39.130Z,1.67
2019-05-07T01:36:15.329Z,1.67
2019-05-07T01:38:43.722Z,1.40
2019-05-07T01:41:12.580Z,1.80
2019-05-07T01:43:42.929Z,1.90
2019-05-07T01:46:12.279Z,1.60
2019-05-07T01:48:42.783Z,1.75
2019-05-07T01:51:12.866Z,1.70
2019-05-07T01:53:42.920Z,1.85
2019-05-07T01:56:12.397Z,1.62
2019-05-07T01:58:42.500Z,1.60
2019-05-07T02:01:12.921Z,1.60
2019-05-07T02:03:42.775Z,1.87
2019-05-07T02:06:13.247Z,1.90
2019-05-07T02:08:46.343Z,1.67
2019-05-07T02:11:28.701Z,1.70
2019-05-07T02:13:57.131Z,1.60
2019-05-07T02:16:25.599Z,1.50
2019-05-07T02:18:54.011Z,1.60
2019-05-07T02:21:22.305Z,1.70
2019-05-07T02:23:52.357Z,1.62
2019-05-07T02:26:22.607Z,1.70
2019-05-07T02:28:51.827Z,1.90
2019-05-07T02:31:22.995Z,1.65
2019-05-07T02:33:54.064Z,1.45
2019-05-07T02:36:23.745Z,1.25
2019-05-07T02:38:53.455Z,1.40
2019-05-07T02:41:26.804Z,1.57
2019-05-07T02:43:55.253Z,1.42
2019-05-07T02:46:37.474Z,1.37
2019-05-07T02:49:10.523Z,1.37
2019-05-07T02:51:43.561Z,1.60
2019-05-07T02:54:13.347Z,1.50
2019-05-07T02:56:43.296Z,1.45
2019-05-07T02:59:13.705Z,1.55
2019-05-07T03:01:43.288Z,1.67
2019-05-07T03:04:12.901Z,1.50
2019-05-07T03:06:44.349Z,1.45
2019-05-07T03:09:14.454Z,1.55
2019-05-07T03:11:43.515Z,1.50
2019-05-07T03:14:13.962Z,1.40
2019-05-07T03:16:47.596Z,1.35
2019-05-07T03:19:13.434Z,1.42
2019-05-07T03:21:54.855Z,1.30
2019-05-07T03:24:25.908Z,1.32
2019-05-07T03:26:54.387Z,1.47
2019-05-07T03:29:24.402Z,1.50
2019-05-07T03:32:15.750Z,1.35
2019-05-07T03:34:46.932Z,1.27
2019-05-07T03:37:17.170Z,1.30
2019-05-07T03:39:45.557Z,1.22
2019-05-07T03:42:14.030Z,1.27
2019-05-07T03:44:47.122Z,1.40
2019-05-07T03:47:17.259Z,1.40
2019-05-07T03:49:45.671Z,1.30
2019-05-07T03:52:14.118Z,1.40
2019-05-07T03:54:43.202Z,1.42
2019-05-07T03:57:15.676Z,1.27
2019-05-07T03:59:43.203Z,1.50
2019-05-07T04:02:14.345Z,1.20
2019-05-07T04:04:43.269Z,1.10
2019-05-07T04:07:13.813Z,1.20
2019-05-07T04:09:43.746Z,1.00
2019-05-07T04:12:13.166Z,1.20
2019-05-07T04:14:43.285Z,1.00
2019-05-07T04:17:17.209Z,1.10
2019-05-07T04:19:44.109Z,1.00
2019-05-07T04:22:13.048Z,1.02
2019-05-07T04:24:59.528Z,1.00
2019-05-07T04:27:38.670Z,1.12
2019-05-07T04:30:12.656Z,1.10
2019-05-07T04:32:43.346Z,1.30
2019-05-07T04:35:13.651Z,1.02
2019-05-07T04:37:42.759Z,1.00
2019-05-07T04:40:13.424Z,1.32
2019-05-07T04:42:42.758Z,1.10
2019-05-07T04:45:13.604Z,1.10
2019-05-07T04:47:46.406Z,1.12
2019-05-07T04:50:14.129Z,1.10
2019-05-07T04:52:43.630Z,1.10
2019-05-07T04:55:13.783Z,1.00
2019-05-07T04:57:43.688Z,1.35
2019-05-07T05:00:13.574Z,1.40
2019-05-07T05:02:46.465Z,1.42
2019-05-07T05:05:15.433Z,1.70
2019-05-07T05:07:43.876Z,1.40
2019-05-07T05:10:13.426Z,1.60
2019-05-07T05:12:42.795Z,1.50
2019-05-07T05:15:12.631Z,1.92
2019-05-07T05:17:50.535Z,1.50
2019-05-07T05:20:13.090Z,1.90
2019-05-07T05:22:48.826Z,1.70
2019-05-07T05:25:34.296Z,1.60
2019-05-07T05:28:02.748Z,2.00
2019-05-07T05:30:32.859Z,1.85
2019-05-07T05:33:03.980Z,1.65
2019-05-07T05:35:32.113Z,1.80
2019-05-07T05:38:02.907Z,1.80
2019-05-07T05:40:31.975Z,1.80
2019-05-07T05:43:02.295Z,1.70
2019-05-07T05:45:42.645Z,2.08
2019-05-07T05:48:13.354Z,1.90
2019-05-07T05:50:53.592Z,1.90
2019-05-07T05:53:23.841Z,1.95
2019-05-07T05:55:53.273Z,2.35
2019-05-07T05:58:35.453Z,2.25
2019-05-07T06:01:23.899Z,3.52
2019-05-07T06:03:53.868Z,3.25
2019-05-07T06:06:23.907Z,3.87
2019-05-07T06:08:54.003Z,4.30
2019-05-07T06:11:26.748Z,4.33
2019-05-07T06:14:02.743Z,5.37
2019-05-07T06:16:36.710Z,5.37
2019-05-07T06:19:09.631Z,6.62
2019-05-07T06:21:55.973Z,6.53
2019-05-07T06:27:02.999Z,6.35
2019-05-07T06:29:32.999Z,6.97
2019-05-07T06:32:03.286Z,7.40
2019-05-07T06:34:31.630Z,6.00
2019-05-07T06:37:02.207Z,7.92
2019-05-07T06:39:43.599Z,7.87
2019-05-07T06:42:30.283Z,7.47
2019-05-07T06:45:03.301Z,7.25
2019-05-07T06:47:31.975Z,7.87
2019-05-07T06:50:00.344Z,7.12
2019-05-07T06:52:28.784Z,7.75
2019-05-07T06:54:57.332Z,7.50
2019-05-07T06:57:27.361Z,8.28
2019-05-07T06:59:57.447Z,8.10
2019-05-07T07:02:27.462Z,8.45
2019-05-07T07:04:57.582Z,9.08
2019-05-07T07:07:33.937Z,9.18
2019-05-07T07:10:02.801Z,8.75
2019-05-07T07:12:33.256Z,8.80
2019-05-07T07:15:02.770Z,9.53
2019-05-07T07:17:32.593Z,9.53
2019-05-07T07:20:02.095Z,7.45
2019-05-07T07:22:31.976Z,8.15
2019-05-07T07:25:02.910Z,9.08
2019-05-07T07:27:32.179Z,8.53
2019-05-07T07:30:08.336Z,8.65
2019-05-07T07:32:38.356Z,8.73
2019-05-07T07:35:08.940Z,9.10
2019-05-07T07:37:39.012Z,9.18
2019-05-07T07:40:13.946Z,8.85
2019-05-07T07:42:42.709Z,8.63
2019-05-07T07:45:15.925Z,8.43
2019-05-07T07:47:45.463Z,8.28
2019-05-07T07:50:14.056Z,8.48
2019-05-07T07:52:42.499Z,8.70
2019-05-07T07:55:12.726Z,8.45
2019-05-07T07:57:48.706Z,9.15
2019-05-07T08:00:20.438Z,9.35
2019-05-07T08:02:52.707Z,9.85
2019-05-07T08:05:21.950Z,9.85
2019-05-07T08:07:50.385Z,8.55
2019-05-07T08:10:18.709Z,9.48
2019-05-07T08:12:47.166Z,9.43
2019-05-07T08:15:20.886Z,9.60
2019-05-07T08:17:45.631Z,10.23
2019-05-07T08:20:14.162Z,10.45
2019-05-07T08:22:42.590Z,10.38
2019-05-07T08:25:12.525Z,10.03
2019-05-07T08:27:41.990Z,11.38
2019-05-07T08:30:12.306Z,10.90
2019-05-07T08:32:45.183Z,10.28
2019-05-07T08:35:32.532Z,10.32
2019-05-07T08:38:02.231Z,10.90
2019-05-07T08:40:32.428Z,12.30
2019-05-07T08:43:03.046Z,9.63
2019-05-07T08:45:48.709Z,9.85
2019-05-07T08:48:18.762Z,9.73
2019-05-07T08:50:47.201Z,10.18
2019-05-07T08:53:15.588Z,11.03
2019-05-07T08:55:43.986Z,10.38
2019-05-07T08:58:12.386Z,11.95
2019-05-07T09:00:41.769Z,10.65
2019-05-07T09:03:20.102Z,11.30
2019-05-07T09:05:42.332Z,10.03
2019-05-07T09:08:12.490Z,11.60
2019-05-07T09:10:42.259Z,11.75
2019-05-07T09:13:12.577Z,10.13
2019-05-07T09:15:42.491Z,11.70
2019-05-07T09:18:12.403Z,10.40
2019-05-07T09:20:42.525Z,10.55
2019-05-07T09:23:12.245Z,10.45
2019-05-07T09:25:42.406Z,11.43
2019-05-07T09:28:11.888Z,11.80
2019-05-07T09:30:54.521Z,10.25
2019-05-07T09:33:24.586Z,9.05
2019-05-07T09:35:53.730Z,10.10
2019-05-07T09:38:22.365Z,10.63
2019-05-07T09:40:52.480Z,9.65
2019-05-07T09:43:22.040Z,10.78
2019-05-07T09:45:52.216Z,10.58
2019-05-07T09:48:22.170Z,9.50
2019-05-07T09:50:52.911Z,9.50
2019-05-07T09:53:22.722Z,8.70
2019-05-07T09:55:51.615Z,9.13
2019-05-07T09:58:34.993Z,8.90
2019-05-07T10:00:50.204Z,9.03
2019-05-07T10:03:18.494Z,9.65
2019-05-07T10:05:46.973Z,10.00
2019-05-07T10:08:15.365Z,9.48
2019-05-07T10:10:45.393Z,9.23
2019-05-07T10:13:15.459Z,9.10
2019-05-07T10:15:43.825Z,9.63
2019-05-07T10:18:13.811Z,10.48
2019-05-07T10:20:42.267Z,9.23
2019-05-07T10:23:12.254Z,8.90
2019-05-07T10:25:40.629Z,9.05
2019-05-07T10:28:08.915Z,9.63
2019-05-07T10:30:37.247Z,8.98
2019-05-07T10:33:05.676Z,9.45
2019-05-07T10:35:34.177Z,9.03
2019-05-07T10:38:02.503Z,9.50
2019-05-07T10:40:32.654Z,11.22
2019-05-07T10:43:00.851Z,9.93
2019-05-07T10:45:32.319Z,11.68
2019-05-07T10:48:14.832Z,10.30
2019-05-07T10:50:44.832Z,9.25
2019-05-07T10:53:13.125Z,9.80
2019-05-07T10:55:41.983Z,10.23
2019-05-07T10:58:11.537Z,11.33
2019-05-07T11:00:41.970Z,11.33
2019-05-07T11:03:10.016Z,9.25
2019-05-07T11:05:38.385Z,8.48
2019-05-07T11:08:06.794Z,9.13
2019-05-07T11:10:35.195Z,9.20
2019-05-07T11:13:03.537Z,8.63
2019-05-07T11:15:32.621Z,9.18
2019-05-07T11:18:03.588Z,7.92
2019-05-07T11:20:32.154Z,7.87
2019-05-07T11:23:02.500Z,7.30
2019-05-07T11:25:30.747Z,6.40
2019-05-07T11:27:59.150Z,7.55
2019-05-07T11:30:27.556Z,7.03
2019-05-07T11:32:55.949Z,6.03
2019-05-07T11:35:24.310Z,7.33
2019-05-07T11:37:52.677Z,6.87
2019-05-07T11:40:22.862Z,6.75
2019-05-07T11:43:09.171Z,5.60
2019-05-07T11:45:39.196Z,7.10
2019-05-07T11:48:07.597Z,6.35
2019-05-07T11:50:42.250Z,6.65
2019-05-07T11:53:12.416Z,7.53
2019-05-07T11:55:42.087Z,7.22
2019-05-07T11:58:12.677Z,6.35
2019-05-07T12:00:45.998Z,5.83
2019-05-07T12:03:14.788Z,6.10
2019-05-07T12:05:43.299Z,4.20
2019-05-07T12:08:13.259Z,5.00
2019-05-07T15:38:32.772Z,3.90
2019-05-07T15:41:02.191Z,3.40
2019-05-07T15:43:32.340Z,2.77
2019-05-07T15:46:02.199Z,3.40
2019-05-07T15:48:32.552Z,3.40
2019-05-07T15:51:00.817Z,3.33
2019-05-07T15:53:37.306Z,3.17
2019-05-07T15:56:05.853Z,3.40
2019-05-07T15:58:34.446Z,3.10
2019-05-07T16:01:04.179Z,3.00
2019-05-07T16:03:40.248Z,2.87
2019-05-07T16:08:44.377Z,3.50
2019-05-07T16:11:12.921Z,3.12
2019-05-07T16:13:45.628Z,3.12
2019-05-07T16:16:14.050Z,3.65
2019-05-07T16:19:01.867Z,4.10
2019-05-07T16:21:32.535Z,4.22
2019-05-07T16:24:00.588Z,4.78
2019-05-07T16:26:29.223Z,4.60
2019-05-07T16:28:57.787Z,4.10
2019-05-07T16:31:26.288Z,4.62
2019-05-07T16:33:54.839Z,4.50
2019-05-07T16:36:23.323Z,4.05
2019-05-07T16:38:52.734Z,4.95
2019-05-07T16:41:22.369Z,3.77
2019-05-07T16:43:52.449Z,3.95
2019-05-07T16:46:22.430Z,4.90
2019-05-07T16:48:51.129Z,4.95
2019-05-07T16:51:19.550Z,4.78
2019-05-07T16:53:48.038Z,4.62
2019-05-07T16:56:16.604Z,4.67
2019-05-07T16:58:49.475Z,4.10
2019-05-07T17:01:18.136Z,3.55
2019-05-07T17:03:52.099Z,3.85
2019-05-07T17:06:24.800Z,4.50
2019-05-07T17:08:52.580Z,4.90
2019-05-07T17:11:22.657Z,4.60
2019-05-07T17:13:51.910Z,3.70
2019-05-07T17:16:22.660Z,4.40
2019-05-07T17:18:51.895Z,5.42
2019-05-07T17:21:21.766Z,3.98
2019-05-07T17:23:51.905Z,4.70
2019-05-07T17:26:20.493Z,4.83
2019-05-07T17:28:49.074Z,5.22
2019-05-07T17:31:17.555Z,3.95
2019-05-07T17:33:46.048Z,4.05
2019-05-07T17:36:14.616Z,4.53
2019-05-07T17:38:43.030Z,4.47
2019-05-07T17:41:20.088Z,4.05
2019-05-07T17:43:41.605Z,4.00
2019-05-07T17:46:12.150Z,4.10
2019-05-07T17:48:40.298Z,4.90
2019-05-07T17:51:12.304Z,4.03
2019-05-07T17:53:43.604Z,3.67
2019-05-07T17:56:12.656Z,3.70
2019-05-07T17:58:42.621Z,4.15
2019-05-07T18:01:10.832Z,4.33
2019-05-07T18:03:42.660Z,3.52
2019-05-07T18:06:12.545Z,4.37
2019-05-07T18:08:41.427Z,3.60
2019-05-07T18:11:20.186Z,4.45
2019-05-07T18:13:42.268Z,3.80
2019-05-07T18:16:27.353Z,3.98
2019-05-07T18:18:56.871Z,4.22
2019-05-07T18:21:25.451Z,4.35
2019-05-07T18:23:53.889Z,2.15
2019-05-07T18:26:30.432Z,1.80
2019-05-07T18:28:52.836Z,1.77
2019-05-07T18:31:23.033Z,1.60
2019-05-07T18:33:53.279Z,1.57
2019-05-07T18:36:22.669Z,1.60
2019-05-07T18:38:52.850Z,1.60
2019-05-07T18:41:22.307Z,1.70
2019-05-07T18:43:54.402Z,1.90
2019-05-07T18:46:22.156Z,1.80
2019-05-07T18:48:51.858Z,1.80
2019-05-07T18:51:20.626Z,1.67
2019-05-07T18:53:49.083Z,1.98
2019-05-07T18:56:17.580Z,2.00
2019-05-07T18:58:46.049Z,1.92
2019-05-07T19:01:16.184Z,1.90
2019-05-07T19:03:44.853Z,2.15
2019-05-07T19:06:13.679Z,1.80
2019-05-07T19:08:42.553Z,2.00
2019-05-07T19:11:12.391Z,1.98
2019-05-07T19:13:41.958Z,2.00
2019-05-07T19:16:12.465Z,1.67
2019-05-07T19:18:42.849Z,1.87
2019-05-07T19:21:11.073Z,1.70
2019-05-07T19:23:42.306Z,2.00
2019-05-07T19:26:12.843Z,1.82
2019-05-07T19:28:40.814Z,1.80
2019-05-07T19:31:09.231Z,1.80
2019-05-07T19:33:38.422Z,1.95
2019-05-07T19:36:06.882Z,1.70
2019-05-07T19:38:35.714Z,1.80
2019-05-07T19:41:04.251Z,1.70
2019-05-07T19:43:35.955Z,1.80
2019-05-07T19:46:02.941Z,1.85
2019-05-07T19:48:32.451Z,1.60
2019-05-07T19:51:02.870Z,1.85
2019-05-07T19:53:32.700Z,1.70
2019-05-07T19:56:12.032Z,2.20
2019-05-07T19:58:41.888Z,2.17
2019-05-07T20:01:12.160Z,2.02
2019-05-07T20:03:43.302Z,2.10
2019-05-07T20:06:12.857Z,2.20
2019-05-07T20:08:43.699Z,2.22
2019-05-07T20:11:31.835Z,1.60
2019-05-07T20:14:01.874Z,2.02
2019-05-07T20:16:32.317Z,2.20
2019-05-07T20:19:00.264Z,2.00
2019-05-07T20:21:28.858Z,2.17
2019-05-07T20:23:57.301Z,1.92
2019-05-07T20:26:25.886Z,2.27
2019-05-07T20:28:54.353Z,2.20
2019-05-07T20:31:22.946Z,2.10
2019-05-07T20:33:53.089Z,2.30
2019-05-07T20:36:21.709Z,1.87
2019-05-07T20:38:51.927Z,2.10
2019-05-07T20:41:20.513Z,2.58
2019-05-07T20:43:48.990Z,2.15
2019-05-07T20:46:17.656Z,2.30
2019-05-07T20:48:46.249Z,1.95
2019-05-07T20:51:14.676Z,2.20
2019-05-07T20:54:01.174Z,1.90
2019-05-07T20:56:32.251Z,2.30
2019-05-07T20:59:02.907Z,3.42
2019-05-07T21:01:32.870Z,3.33
2019-05-07T21:04:02.050Z,2.62
2019-05-07T21:06:32.246Z,2.60
2019-05-07T21:09:01.241Z,2.35
2019-05-07T21:11:29.622Z,2.75
2019-05-07T21:13:58.041Z,2.20
2019-05-07T21:16:26.642Z,2.15
2019-05-07T21:18:55.078Z,2.20
2019-05-07T21:21:23.529Z,2.42
2019-05-07T21:23:52.675Z,2.52
2019-05-07T21:26:22.456Z,2.22
2019-05-07T21:28:52.852Z,2.30
2019-05-07T21:31:22.830Z,2.20
2019-05-07T21:33:52.404Z,2.05
2019-05-07T21:36:22.837Z,2.40
2019-05-07T21:38:51.983Z,2.30
2019-05-07T21:41:22.675Z,2.20
2019-05-07T21:43:52.645Z,2.30
2019-05-07T21:46:22.209Z,1.72
2019-05-07T21:48:51.856Z,2.15
2019-05-07T21:51:22.820Z,1.90
2019-05-07T21:53:55.734Z,2.15
2019-05-07T21:56:38.090Z,1.80
2019-05-07T21:59:12.477Z,2.42
2019-05-07T22:01:46.702Z,2.35
2019-05-07T22:04:15.306Z,2.00
2019-05-07T22:06:45.556Z,2.40
2019-05-07T22:09:14.502Z,2.17
2019-05-07T22:11:42.977Z,1.90
2019-05-07T22:14:12.845Z,2.20
2019-05-07T22:16:42.090Z,2.08
2019-05-07T22:19:23.105Z,2.00
2019-05-07T22:21:52.323Z,1.98
2019-05-07T22:24:22.438Z,1.85
2019-05-07T22:26:51.289Z,2.10
2019-05-07T22:29:19.698Z,2.10
2019-05-07T22:31:53.119Z,2.20
2019-05-07T22:34:23.188Z,2.05
2019-05-07T22:36:52.138Z,2.00
2019-05-07T22:39:22.139Z,1.77
2019-05-07T22:41:50.606Z,2.08
2019-05-07T22:44:19.142Z,2.22
2019-05-07T22:46:47.733Z,2.20
2019-05-07T22:49:16.152Z,2.05
2019-05-07T22:51:44.615Z,2.08
2019-05-07T22:54:13.047Z,2.20
2019-05-07T22:56:59.739Z,2.10
2019-05-07T22:59:28.247Z,2.15
2019-05-07T23:01:56.743Z,1.92
2019-05-07T23:04:25.384Z,1.85
2019-05-07T23:06:53.898Z,2.15
2019-05-07T23:09:22.554Z,2.33
2019-05-07T23:11:52.553Z,2.40
2019-05-07T23:14:33.013Z,2.35
2019-05-07T23:17:02.627Z,2.27
2019-05-07T23:19:32.710Z,2.27
2019-05-07T23:22:02.773Z,2.27
2019-05-07T23:24:31.919Z,1.98
2019-05-07T23:27:00.541Z,2.20
2019-05-07T23:29:29.057Z,2.40
2019-05-07T23:31:57.719Z,2.42
2019-05-07T23:34:26.127Z,2.02
2019-05-07T23:36:54.702Z,2.50
2019-05-07T23:39:24.897Z,2.30
2019-05-07T23:42:04.029Z,2.58
2019-05-07T23:44:33.583Z,2.40
2019-05-07T23:47:02.781Z,2.67
2019-05-07T23:49:32.215Z,2.45
2019-05-07T23:52:02.440Z,2.17
2019-05-07T23:54:31.930Z,2.20
2019-05-07T23:57:07.069Z,2.10
2019-05-07T23:59:32.711Z,2.65
